Time;durP1;ratioP1;P1;durP2;ratioP2;P2;SDS_P1;SDS_P2;PMS_P1;PMS_P2;Temp;Humidity;BMP_temperature;BMP_pressure;BME280_temperature;BME280_humidity;BME280_pressure;Samples;Min_cycle;Max_cycle;Signal;HPM_P1;HPM_P2
2023/06/25 00:01:51;;;;;;;13.97;12.67;;;21.60;99.90;;;;;;5093195;28;20465;-79
2023/06/25 00:04:18;;;;;;;13.27;12.00;;;21.60;99.90;;;;;;5092983;28;20465;-78
2023/06/25 00:06:45;;;;;;;13.90;12.57;;;21.60;99.90;;;;;;5092405;28;20477;-78
2023/06/25 00:09:16;;;;;;;14.90;13.50;;;21.60;99.90;;;;;;5092735;28;20477;-78
2023/06/25 00:11:43;;;;;;;12.97;11.80;;;21.60;99.90;;;;;;5091871;28;20539;-78
2023/06/25 00:14:12;;;;;;;15.17;13.70;;;21.60;99.90;;;;;;5091373;28;20458;-79
2023/06/25 00:16:39;;;;;;;12.20;11.00;;;21.50;99.90;;;;;;5091360;28;20474;-78
2023/06/25 00:19:08;;;;;;;12.53;11.33;;;21.50;99.90;;;;;;5095973;28;20473;-78
2023/06/25 00:21:35;;;;;;;12.57;11.40;;;21.50;99.90;;;;;;5094649;28;20466;-79
2023/06/25 00:24:04;;;;;;;12.43;11.33;;;21.60;99.90;;;;;;5097663;28;20465;-78
2023/06/25 00:26:31;;;;;;;12.03;11.00;;;21.50;99.90;;;;;;5097135;28;20473;-78
2023/06/25 00:29:00;;;;;;;12.83;11.53;;;21.60;99.90;;;;;;5095532;28;20479;-79
2023/06/25 00:31:27;;;;;;;14.30;12.80;;;21.60;99.90;;;;;;5097833;28;20967;-78
2023/06/25 00:34:19;;;;;;;14.30;12.90;;;21.60;99.90;;;;;;5089192;28;20472;-77
2023/06/25 00:36:46;;;;;;;14.43;13.13;;;21.60;99.90;;;;;;5105827;28;20476;-78
2023/06/25 00:39:13;;;;;;;12.67;11.60;;;21.60;99.90;;;;;;5098199;28;20465;-79
2023/06/25 00:41:40;;;;;;;11.43;10.43;;;21.60;99.90;;;;;;5097423;28;20954;-78
2023/06/25 00:44:08;;;;;;;13.13;11.83;;;21.60;99.90;;;;;;5097059;28;20522;-79
2023/06/25 00:46:35;;;;;;;12.03;10.90;;;21.60;99.90;;;;;;5097366;28;20462;-78
2023/06/25 00:49:06;;;;;;;13.07;11.93;;;21.60;99.90;;;;;;5097079;28;20792;-78
2023/06/25 00:51:36;;;;;;;11.97;10.80;;;21.60;99.90;;;;;;5097544;28;20469;-78
2023/06/25 00:54:05;;;;;;;13.30;12.00;;;21.60;99.90;;;;;;5097017;28;20454;-78
2023/06/25 00:56:33;;;;;;;13.33;12.23;;;21.60;99.90;;;;;;5097952;28;20469;-78
2023/06/25 00:59:02;;;;;;;11.30;10.13;;;21.60;99.90;;;;;;5096874;28;23236;-78
2023/06/25 01:01:39;;;;;;;12.27;11.13;;;21.60;99.90;;;;;;5097289;28;20552;-78
2023/06/25 01:04:13;;;;;;;11.17;10.10;;;21.70;99.90;;;;;;5087092;28;20453;-78
2023/06/25 01:06:47;;;;;;;11.73;10.63;;;21.70;99.90;;;;;;5098841;28;20468;-79
2023/06/25 01:09:16;;;;;;;11.17;10.17;;;21.70;99.90;;;;;;5097864;28;20805;-78
2023/06/25 01:11:53;;;;;;;11.13;10.13;;;21.70;99.90;;;;;;5097317;28;20465;-79
2023/06/25 01:14:28;;;;;;;11.03;10.03;;;21.70;99.90;;;;;;5088338;28;20448;-79
2023/06/25 01:16:55;;;;;;;12.27;10.97;;;21.70;99.90;;;;;;5087355;28;20457;-77
2023/06/25 01:19:29;;;;;;;10.87;9.97;;;21.70;99.90;;;;;;5092878;28;20560;-78
2023/06/25 01:21:59;;;;;;;10.97;10.00;;;21.70;99.90;;;;;;5077561;28;20496;-78
2023/06/25 01:24:28;;;;;;;10.70;9.80;;;21.70;99.90;;;;;;5060163;28;20850;-78
2023/06/25 01:26:59;;;;;;;11.10;10.10;;;21.70;99.90;;;;;;5092386;28;20476;-78
2023/06/25 01:29:28;;;;;;;11.10;10.10;;;21.70;99.90;;;;;;5095615;28;20464;-78
2023/06/25 01:31:57;;;;;;;9.30;8.47;;;21.70;99.90;;;;;;5096778;28;20461;-78
2023/06/25 01:34:24;;;;;;;10.70;9.63;;;21.70;99.90;;;;;;5080109;28;20846;-79
2023/06/25 01:36:52;;;;;;;11.10;10.20;;;21.70;99.90;;;;;;5076079;28;21027;-78
2023/06/25 01:39:20;;;;;;;10.87;9.97;;;21.80;99.90;;;;;;5075628;28;20952;-79
2023/06/25 01:41:50;;;;;;;10.20;9.13;;;21.80;99.90;;;;;;5076552;28;20470;-78
2023/06/25 01:44:26;;;;;;;11.03;10.03;;;21.80;99.90;;;;;;5075607;28;20494;-79
2023/06/25 01:46:53;;;;;;;9.80;8.80;;;21.80;99.90;;;;;;5075699;28;20466;-79
2023/06/25 01:49:20;;;;;;;9.53;8.73;;;21.80;99.90;;;;;;5075518;28;20490;-79
2023/06/25 01:51:47;;;;;;;8.90;8.13;;;21.80;99.90;;;;;;5094712;28;20538;-77
2023/06/25 01:54:14;;;;;;;8.90;8.17;;;21.80;99.90;;;;;;5095534;28;20810;-78
2023/06/25 01:56:42;;;;;;;9.40;8.60;;;21.80;99.90;;;;;;5095834;28;20939;-77
2023/06/25 01:59:13;;;;;;;8.80;8.00;;;21.80;99.90;;;;;;5094713;28;21268;-77
2023/06/25 02:01:40;;;;;;;9.37;8.47;;;21.80;99.90;;;;;;5096107;28;20978;-77
2023/06/25 02:04:07;;;;;;;10.00;9.10;;;21.80;99.90;;;;;;5095884;28;20962;-77
2023/06/25 02:06:36;;;;;;;9.23;8.43;;;21.80;99.90;;;;;;5095774;28;20461;-77
2023/06/25 02:09:03;;;;;;;9.60;8.73;;;21.80;99.90;;;;;;5095866;28;20477;-79
2023/06/25 02:11:30;;;;;;;9.30;8.57;;;21.80;99.90;;;;;;5095473;28;20518;-77
2023/06/25 02:13:57;;;;;;;9.53;8.53;;;21.80;99.90;;;;;;5096071;28;20469;-77
2023/06/25 02:16:26;;;;;;;9.47;8.67;;;21.80;99.90;;;;;;5095293;28;20480;-79
2023/06/25 02:18:56;;;;;;;8.30;7.60;;;21.90;99.90;;;;;;5095934;28;20468;-78
2023/06/25 02:21:25;;;;;;;8.10;7.40;;;21.80;99.90;;;;;;5094929;28;20472;-79
2023/06/25 02:23:52;;;;;;;9.37;8.57;;;21.80;99.90;;;;;;5093938;28;20470;-78
2023/06/25 02:26:21;;;;;;;8.37;7.57;;;21.80;99.90;;;;;;5080434;28;20476;-78
2023/06/25 02:28:48;;;;;;;9.07;8.27;;;21.90;99.90;;;;;;5075466;28;20489;-78
2023/06/25 02:31:15;;;;;;;8.07;7.37;;;21.90;99.90;;;;;;5074686;28;20489;-78
2023/06/25 02:33:44;;;;;;;8.93;8.13;;;21.90;99.90;;;;;;5075633;28;20496;-79
2023/06/25 02:36:11;;;;;;;9.63;8.83;;;21.90;99.90;;;;;;5075014;28;20474;-77
2023/06/25 02:38:38;;;;;;;7.93;7.10;;;21.90;99.90;;;;;;5062843;28;20470;-78
2023/06/25 02:41:05;;;;;;;8.53;7.83;;;21.90;99.90;;;;;;5054107;28;20475;-78
2023/06/25 02:43:32;;;;;;;8.70;7.90;;;21.90;99.90;;;;;;5057052;28;20482;-79
2023/06/25 02:45:59;;;;;;;7.93;7.33;;;21.90;99.90;;;;;;5060799;28;20472;-78
2023/06/25 02:48:26;;;;;;;7.23;6.63;;;21.90;99.90;;;;;;5054477;28;21039;-78
2023/06/25 02:50:54;;;;;;;8.50;7.70;;;21.90;99.90;;;;;;5064395;28;20546;-79
2023/06/25 02:53:21;;;;;;;9.00;8.20;;;21.90;99.90;;;;;;5075338;28;20481;-78
2023/06/25 02:55:49;;;;;;;8.43;7.63;;;21.90;99.90;;;;;;5076059;28;20466;-78
2023/06/25 02:58:16;;;;;;;8.30;7.60;;;21.90;99.90;;;;;;5075489;28;20855;-78
2023/06/25 03:00:45;;;;;;;7.83;7.23;;;21.90;99.90;;;;;;5075358;28;20466;-79
2023/06/25 03:03:13;;;;;;;7.83;7.13;;;21.90;99.90;;;;;;5075260;28;20462;-79
2023/06/25 03:05:40;;;;;;;8.27;7.47;;;21.90;99.90;;;;;;5074897;28;20459;-78
2023/06/25 03:08:09;;;;;;;8.03;7.30;;;21.90;99.90;;;;;;5075050;28;20789;-78
2023/06/25 03:10:37;;;;;;;12.30;7.40;;;21.90;99.90;;;;;;5075241;28;20470;-79
2023/06/25 03:13:05;;;;;;;7.90;7.17;;;21.90;99.90;;;;;;5081293;28;20470;-79
2023/06/25 03:15:32;;;;;;;8.63;7.87;;;21.90;99.90;;;;;;5074815;28;20466;-79
2023/06/25 03:17:59;;;;;;;7.40;6.73;;;21.90;99.90;;;;;;5074832;28;20461;-79
2023/06/25 03:20:26;;;;;;;8.50;7.77;;;21.90;99.90;;;;;;5073861;28;20812;-77
2023/06/25 03:22:53;;;;;;;7.73;7.13;;;21.90;99.90;;;;;;5075442;28;20466;-78
2023/06/25 03:25:24;;;;;;;9.40;8.60;;;21.90;99.90;;;;;;5061299;28;20957;-78
2023/06/25 03:27:51;;;;;;;9.30;8.50;;;21.90;99.90;;;;;;5059936;28;20458;-78
2023/06/25 03:30:21;;;;;;;9.33;8.43;;;21.90;99.90;;;;;;5074162;28;20475;-77
2023/06/25 03:32:50;;;;;;;8.60;7.90;;;21.90;99.90;;;;;;5074105;28;20458;-78
2023/06/25 03:35:18;;;;;;;10.27;9.37;;;21.90;99.90;;;;;;5074886;28;20474;-78
2023/06/25 03:37:45;;;;;;;8.13;7.43;;;21.90;99.90;;;;;;5073909;28;20474;-78
2023/06/25 03:40:13;;;;;;;9.03;8.33;;;21.90;99.90;;;;;;5073987;28;20470;-78
2023/06/25 03:42:42;;;;;;;9.17;8.37;;;22.00;99.90;;;;;;5073502;28;20475;-79
2023/06/25 03:45:10;;;;;;;9.20;8.33;;;22.00;99.90;;;;;;5074511;28;20557;-78
2023/06/25 03:47:37;;;;;;;9.80;8.93;;;22.00;99.90;;;;;;5073180;28;20481;-79
2023/06/25 03:50:05;;;;;;;7.80;7.10;;;22.00;99.90;;;;;;5074023;28;20528;-78
2023/06/25 03:52:35;;;;;;;9.07;8.17;;;22.00;99.90;;;;;;5072743;28;20502;-79
2023/06/25 03:55:02;;;;;;;9.10;8.40;;;22.00;99.90;;;;;;5073845;28;20461;-78
2023/06/25 03:57:30;;;;;;;8.70;7.90;;;22.00;99.90;;;;;;5073935;28;20490;-79
2023/06/25 03:59:59;;;;;;;8.80;8.10;;;22.00;99.90;;;;;;5073368;28;20462;-79
2023/06/25 04:02:26;;;;;;;9.10;8.30;;;22.00;99.90;;;;;;5079922;28;20469;-78
2023/06/25 04:04:53;;;;;;;8.23;7.53;;;22.00;99.90;;;;;;5093098;28;20534;-78
2023/06/25 04:07:23;;;;;;;9.60;8.70;;;22.00;99.90;;;;;;5093712;28;20476;-77
2023/06/25 04:09:49;;;;;;;9.50;8.70;;;22.00;99.90;;;;;;5084636;28;20800;-78
2023/06/25 04:12:16;;;;;;;7.80;7.10;;;22.10;99.90;;;;;;5093665;28;20511;-78
2023/06/25 04:14:43;;;;;;;8.93;8.23;;;22.00;99.90;;;;;;5093174;28;20474;-78
2023/06/25 04:17:12;;;;;;;8.93;8.13;;;22.10;99.90;;;;;;5093464;28;20487;-78
2023/06/25 04:19:42;;;;;;;9.67;8.87;;;22.10;99.90;;;;;;5092398;28;20527;-78
2023/06/25 04:22:09;;;;;;;8.30;7.60;;;22.10;99.90;;;;;;5093329;28;21014;-78
2023/06/25 04:24:36;;;;;;;8.50;7.80;;;22.00;99.90;;;;;;5093843;28;20560;-78
2023/06/25 04:27:04;;;;;;;8.80;8.00;;;22.10;99.90;;;;;;5092441;28;20930;-79
2023/06/25 04:29:31;;;;;;;8.70;8.00;;;22.10;99.90;;;;;;5093736;28;20959;-79
2023/06/25 04:31:58;;;;;;;8.20;7.50;;;22.10;99.90;;;;;;5092765;28;20465;-79
2023/06/25 04:34:27;;;;;;;7.77;6.87;;;22.10;99.90;;;;;;5093512;28;20476;-79
2023/06/25 04:36:54;;;;;;;8.93;8.23;;;22.10;99.90;;;;;;5092765;28;20466;-79
2023/06/25 04:39:21;;;;;;;7.47;6.87;;;22.10;99.90;;;;;;5092255;28;20453;-79
2023/06/25 04:41:48;;;;;;;8.13;7.17;;;22.10;99.90;;;;;;5091571;28;20550;-79
2023/06/25 04:44:20;;;;;;;8.63;7.80;;;22.20;99.90;;;;;;5093275;28;20527;-79
2023/06/25 04:46:47;;;;;;;7.03;6.33;;;22.10;99.90;;;;;;5093290;28;20800;-79
2023/06/25 04:49:15;;;;;;;7.17;6.47;;;22.20;99.90;;;;;;5093291;28;20833;-79
2023/06/25 04:51:45;;;;;;;6.30;5.70;;;22.20;99.90;;;;;;5093136;28;20544;-79
2023/06/25 04:54:16;;;;;;;6.40;5.80;;;22.20;99.90;;;;;;5093498;28;20784;-79
2023/06/25 04:56:43;;;;;;;6.37;5.87;;;22.20;99.90;;;;;;5092358;28;20557;-79
2023/06/25 04:59:10;;;;;;;6.27;5.67;;;22.30;99.90;;;;;;5092816;28;20465;-78
2023/06/25 05:01:37;;;;;;;5.90;5.50;;;22.30;99.90;;;;;;5093189;28;20549;-78
2023/06/25 05:04:04;;;;;;;7.60;6.90;;;22.30;99.90;;;;;;5095751;28;20490;-79
2023/06/25 05:06:31;;;;;;;6.10;5.60;;;22.40;99.90;;;;;;5101878;28;20469;-79
2023/06/25 05:08:59;;;;;;;8.73;6.60;;;22.40;99.90;;;;;;5096310;28;20853;-78
2023/06/25 05:11:26;;;;;;;7.87;7.17;;;22.40;99.90;;;;;;5096710;28;20501;-78
2023/06/25 05:13:53;;;;;;;6.67;6.13;;;22.40;99.90;;;;;;5096716;28;20473;-79
2023/06/25 05:16:20;;;;;;;5.73;5.23;;;22.50;99.90;;;;;;5096301;28;20476;-79
2023/06/25 05:18:47;;;;;;;6.63;6.10;;;22.50;99.90;;;;;;5095876;28;20469;-79
2023/06/25 05:21:14;;;;;;;6.10;5.60;;;22.50;99.90;;;;;;5096587;28;20540;-79
2023/06/25 05:23:44;;;;;;;6.20;5.60;;;22.50;99.90;;;;;;5096058;28;20795;-79
2023/06/25 05:26:13;;;;;;;5.60;5.20;;;22.60;99.90;;;;;;5096319;28;20458;-79
2023/06/25 05:28:40;;;;;;;5.77;5.37;;;22.60;99.90;;;;;;5096346;28;20526;-78
2023/06/25 05:31:08;;;;;;;5.63;5.13;;;22.60;99.90;;;;;;5095429;28;20465;-78
2023/06/25 05:33:35;;;;;;;6.07;5.57;;;22.60;99.90;;;;;;5096614;28;20970;-78
2023/06/25 05:36:03;;;;;;;6.07;5.57;;;22.70;99.90;;;;;;5095943;28;20530;-79
2023/06/25 05:38:30;;;;;;;6.43;5.90;;;22.70;99.90;;;;;;5095061;28;20546;-79
2023/06/25 05:40:57;;;;;;;6.97;6.37;;;22.70;99.90;;;;;;5095898;28;20484;-79
2023/06/25 05:43:25;;;;;;;7.40;6.80;;;22.70;99.90;;;;;;5096483;28;20856;-79
2023/06/25 05:45:53;;;;;;;6.83;6.23;;;22.80;99.90;;;;;;5095666;28;20465;-79
2023/06/25 05:48:20;;;;;;;6.00;5.40;;;22.80;99.90;;;;;;5095503;28;20470;-79
2023/06/25 05:50:47;;;;;;;7.13;5.90;;;22.80;99.90;;;;;;5096398;28;20465;-79
2023/06/25 05:53:14;;;;;;;6.80;6.20;;;22.90;99.90;;;;;;5095455;28;20450;-80
2023/06/25 05:55:41;;;;;;;6.37;5.87;;;22.90;99.90;;;;;;5096026;28;20507;-79
2023/06/25 05:58:08;;;;;;;6.30;5.80;;;22.90;99.90;;;;;;5095564;28;20504;-79
2023/06/25 06:00:39;;;;;;;6.53;6.03;;;22.90;99.90;;;;;;5095315;28;20492;-80
2023/06/25 06:03:07;;;;;;;6.63;6.13;;;22.90;99.90;;;;;;5094945;28;20462;-79
2023/06/25 06:05:34;;;;;;;6.80;6.20;;;23.00;99.90;;;;;;5095777;28;20476;-79
2023/06/25 06:08:01;;;;;;;6.43;5.87;;;23.00;99.90;;;;;;5095338;28;20465;-78
2023/06/25 06:10:29;;;;;;;7.40;6.80;;;23.00;99.90;;;;;;5096090;28;20453;-78
2023/06/25 06:12:56;;;;;;;6.90;6.30;;;23.10;99.90;;;;;;5095429;28;20824;-78
2023/06/25 06:15:23;;;;;;;7.70;7.00;;;23.20;99.90;;;;;;5087645;28;20775;-78
2023/06/25 06:17:52;;;;;;;7.37;6.70;;;23.20;99.90;;;;;;5107696;28;20493;-77
2023/06/25 06:20:19;;;;;;;9.00;8.30;;;23.30;99.90;;;;;;5095080;28;20469;-78
2023/06/25 06:22:46;;;;;;;8.57;7.87;;;23.30;99.90;;;;;;5095488;28;20469;-78
2023/06/25 06:25:13;;;;;;;7.37;6.63;;;23.40;99.90;;;;;;5094864;28;21024;-78
2023/06/25 06:27:40;;;;;;;7.10;6.50;;;23.50;99.90;;;;;;5095936;28;20814;-78
2023/06/25 06:30:08;;;;;;;6.87;6.37;;;23.60;99.90;;;;;;5094049;28;20477;-79
2023/06/25 06:32:35;;;;;;;7.00;6.30;;;23.70;99.90;;;;;;5095529;28;20465;-79
2023/06/25 06:35:04;;;;;;;6.93;6.33;;;23.80;99.90;;;;;;5095032;28;20535;-78
2023/06/25 06:37:31;;;;;;;6.33;5.73;;;23.90;99.90;;;;;;5086033;28;20465;-78
2023/06/25 06:40:12;;;;;;;6.83;6.33;;;23.90;99.90;;;;;;5095777;28;20462;-77
2023/06/25 06:42:39;;;;;;;7.90;7.30;;;24.10;99.90;;;;;;5095403;28;20556;-79
2023/06/25 06:45:07;;;;;;;7.77;7.07;;;24.30;99.90;;;;;;5094298;28;20800;-80
2023/06/25 06:47:34;;;;;;;7.40;6.80;;;24.40;99.90;;;;;;5094402;28;20495;-78
2023/06/25 06:50:03;;;;;;;8.10;6.80;;;24.40;99.90;;;;;;5100625;28;20469;-78
2023/06/25 06:52:30;;;;;;;6.90;6.33;;;24.60;99.90;;;;;;5095264;28;20529;-79
2023/06/25 06:54:58;;;;;;;7.90;6.80;;;24.70;99.90;;;;;;5094842;28;20469;-78
2023/06/25 06:57:27;;;;;;;7.30;6.70;;;24.80;99.90;;;;;;5094892;28;21024;-78
2023/06/25 06:59:56;;;;;;;7.00;6.40;;;24.90;99.90;;;;;;5094114;28;21024;-78
2023/06/25 07:02:23;;;;;;;8.03;7.30;;;25.00;99.90;;;;;;5094498;28;20465;-78
2023/06/25 07:04:51;;;;;;;7.43;6.90;;;25.20;99.90;;;;;;5093742;28;20462;-78
2023/06/25 07:07:19;;;;;;;7.40;6.80;;;25.30;99.90;;;;;;5094639;28;20639;-79
2023/06/25 07:09:54;;;;;;;7.13;6.63;;;25.50;99.90;;;;;;5094915;28;20813;-79
2023/06/25 07:12:22;;;;;;;7.53;6.90;;;25.60;99.90;;;;;;5094042;28;20453;-79
2023/06/25 07:14:59;;;;;;;8.80;8.00;;;25.80;99.90;;;;;;5094114;28;21039;-79
2023/06/25 07:17:32;;;;;;;9.50;7.07;;;25.90;99.90;;;;;;5094815;28;20468;-79
2023/06/25 07:20:02;;;;;;;6.93;6.30;;;25.90;99.90;;;;;;5098719;28;20472;-79
2023/06/25 07:22:32;;;;;;;7.90;7.20;;;26.00;99.90;;;;;;5093868;28;20494;-79
2023/06/25 07:25:03;;;;;;;7.27;6.77;;;26.10;99.90;;;;;;5084545;28;20469;-78
2023/06/25 07:27:31;;;;;;;8.13;7.33;;;26.20;99.90;;;;;;5093041;28;20523;-79
2023/06/25 07:29:59;;;;;;;8.07;7.47;;;26.30;99.90;;;;;;5093808;28;20546;-79
2023/06/25 07:32:28;;;;;;;7.50;6.90;;;26.30;99.90;;;;;;5093962;28;20465;-79
2023/06/25 07:34:56;;;;;;;15.53;7.53;;;26.40;99.90;;;;;;5093802;28;20980;-79
2023/06/25 07:37:24;;;;;;;7.13;6.53;;;26.40;99.90;;;;;;5093435;28;20470;-79
2023/06/25 07:39:54;;;;;;;8.30;7.60;;;26.40;99.90;;;;;;5094153;28;20470;-79
2023/06/25 07:42:21;;;;;;;7.17;6.67;;;26.50;99.90;;;;;;5093605;28;20470;-78
2023/06/25 07:44:48;;;;;;;8.43;7.67;;;26.50;99.90;;;;;;5093840;28;20471;-80
2023/06/25 07:47:15;;;;;;;7.47;6.87;;;26.50;99.90;;;;;;5093583;28;20951;-77
2023/06/25 07:49:42;;;;;;;7.60;7.00;;;26.40;99.90;;;;;;5093671;28;20465;-80
2023/06/25 07:52:09;;;;;;;8.13;7.33;;;26.40;99.90;;;;;;5093593;28;20531;-78
2023/06/25 07:54:36;;;;;;;10.27;9.27;;;26.40;99.90;;;;;;5094325;28;20779;-79
2023/06/25 07:57:09;;;;;;;8.10;7.50;;;26.30;99.90;;;;;;5098791;28;20534;-78
2023/06/25 08:05:07;;;;;;;7.97;7.27;;;26.30;99.90;;;;;;5088482;28;20499;-79
2023/06/25 08:07:33;;;;;;;9.77;8.67;;;26.30;99.90;;;;;;5093404;28;20466;-80
2023/06/25 08:10:00;;;;;;;9.20;8.30;;;26.30;99.90;;;;;;5092580;28;20466;-79
2023/06/25 08:12:29;;;;;;;7.00;6.50;;;26.20;99.90;;;;;;5092778;28;20477;-80
2023/06/25 08:14:57;;;;;;;8.27;7.20;;;26.30;99.90;;;;;;5093503;28;20469;-77
2023/06/25 08:17:40;;;;;;;8.33;7.53;;;26.20;99.90;;;;;;5093020;28;20450;-79
2023/06/25 08:20:08;;;;;;;8.83;8.17;;;26.30;99.90;;;;;;5092158;28;20977;-79
2023/06/25 08:22:35;;;;;;;13.40;8.00;;;26.30;99.90;;;;;;5092564;28;20480;-80
2023/06/25 08:25:07;;;;;;;8.83;8.03;;;26.30;99.90;;;;;;5092143;28;20856;-79
2023/06/25 08:27:35;;;;;;;7.60;6.83;;;26.20;99.90;;;;;;5093355;28;20947;-78
2023/06/25 08:30:02;;;;;;;6.40;5.90;;;26.20;99.90;;;;;;5093314;28;20462;-80
2023/06/25 08:32:32;;;;;;;7.27;6.77;;;26.30;99.90;;;;;;5093360;28;20457;-78
2023/06/25 08:35:01;;;;;;;7.47;6.97;;;26.30;99.90;;;;;;5093199;28;20540;-78
2023/06/25 08:37:28;;;;;;;8.90;8.10;;;26.30;99.90;;;;;;5092384;28;20767;-79
2023/06/25 08:39:55;;;;;;;8.37;7.67;;;26.40;99.90;;;;;;5097413;28;20466;-79
2023/06/25 08:42:24;;;;;;;11.17;10.00;;;26.50;99.90;;;;;;5097233;28;20496;-79
2023/06/25 08:44:53;;;;;;;10.50;9.60;;;26.50;99.90;;;;;;5096231;28;20461;-79
2023/06/25 08:47:20;;;;;;;9.20;8.30;;;26.60;99.90;;;;;;5097161;28;20465;-78
2023/06/25 08:49:54;;;;;;;10.10;9.20;;;26.70;99.90;;;;;;5097778;28;20466;-79
2023/06/25 08:52:22;;;;;;;9.90;9.10;;;26.80;99.90;;;;;;5097476;28;20466;-80
2023/06/25 08:54:50;;;;;;;9.30;8.60;;;26.80;99.90;;;;;;5096902;28;20476;-78
2023/06/25 08:57:19;;;;;;;8.80;8.00;;;26.80;99.90;;;;;;5096584;28;20527;-79
2023/06/25 08:59:47;;;;;;;11.43;10.33;;;26.80;99.90;;;;;;5096913;28;20500;-78
2023/06/25 09:02:17;;;;;;;8.77;8.03;;;26.80;99.90;;;;;;5096719;28;20466;-78
2023/06/25 09:04:46;;;;;;;9.27;8.47;;;26.90;99.90;;;;;;5097185;28;20536;-78
2023/06/25 09:07:16;;;;;;;10.10;9.30;;;27.00;99.90;;;;;;5096938;28;20478;-79
2023/06/25 09:09:43;;;;;;;10.30;9.47;;;27.10;99.90;;;;;;5084468;28;20474;-79
2023/06/25 09:12:10;;;;;;;8.50;7.70;;;27.10;99.90;;;;;;5076393;28;20480;-79
2023/06/25 09:14:37;;;;;;;9.80;9.10;;;27.20;99.90;;;;;;5076208;28;20538;-79
2023/06/25 09:17:06;;;;;;;9.27;8.50;;;27.20;99.90;;;;;;5076317;28;20494;-78
2023/06/25 09:19:35;;;;;;;8.03;7.43;;;27.20;99.80;;;;;;5075526;28;20487;-79
2023/06/25 09:22:02;;;;;;;8.67;7.97;;;27.30;99.90;;;;;;5076696;28;20806;-79
2023/06/25 09:24:29;;;;;;;9.20;8.50;;;27.40;99.90;;;;;;5075571;28;20472;-78
2023/06/25 09:26:56;;;;;;;8.80;8.10;;;27.40;99.90;;;;;;5076879;28;20490;-78
2023/06/25 09:29:24;;;;;;;9.50;8.70;;;27.50;99.90;;;;;;5075320;28;20475;-79
2023/06/25 09:31:51;;;;;;;8.40;7.70;;;27.60;99.90;;;;;;5075809;28;20461;-78
2023/06/25 09:34:19;;;;;;;8.20;7.50;;;27.60;99.60;;;;;;5076152;28;20475;-79
2023/06/25 09:36:48;;;;;;;9.30;8.60;;;27.70;99.20;;;;;;5075359;28;20476;-79
2023/06/25 09:39:17;;;;;;;9.37;8.43;;;27.70;99.50;;;;;;5076031;28;20481;-79
2023/06/25 09:41:44;;;;;;;9.57;7.93;;;27.80;99.60;;;;;;5076013;28;20479;-79
2023/06/25 09:44:12;;;;;;;8.10;7.50;;;27.80;99.10;;;;;;5076292;28;20539;-78
2023/06/25 09:46:41;;;;;;;7.80;7.10;;;27.80;98.90;;;;;;5075251;28;20466;-78
2023/06/25 09:49:08;;;;;;;8.03;7.23;;;27.90;98.70;;;;;;5066997;28;20787;-79
2023/06/25 09:51:44;;;;;;;7.10;6.60;;;27.90;98.10;;;;;;5065753;28;20946;-79
2023/06/25 09:54:16;;;;;;;8.43;7.73;;;27.90;98.20;;;;;;5075658;28;20479;-79
2023/06/25 09:56:45;;;;;;;9.37;8.50;;;28.00;98.50;;;;;;5074150;28;20970;-79
2023/06/25 09:59:13;;;;;;;9.00;7.40;;;28.00;98.50;;;;;;5075470;28;20490;-77
2023/06/25 10:01:41;;;;;;;7.80;7.10;;;28.00;98.50;;;;;;5074888;28;20465;-78
2023/06/25 10:04:12;;;;;;;7.93;7.33;;;28.00;98.30;;;;;;5075795;28;20476;-78
2023/06/25 10:06:40;;;;;;;7.83;7.13;;;28.00;98.50;;;;;;5075263;28;20970;-78
2023/06/25 10:09:07;;;;;;;8.10;7.30;;;28.00;98.30;;;;;;5075385;28;20552;-78
2023/06/25 10:11:36;;;;;;;7.60;7.00;;;28.00;97.80;;;;;;5075205;28;20481;-79
2023/06/25 10:14:05;;;;;;;7.60;6.90;;;28.10;97.80;;;;;;5075429;28;20467;-80
2023/06/25 10:16:34;;;;;;;8.30;7.70;;;28.00;97.80;;;;;;5074555;28;20850;-78
2023/06/25 10:19:00;;;;;;;7.90;6.70;;;28.00;97.80;;;;;;5075083;28;20465;-78
2023/06/25 10:21:28;;;;;;;7.13;6.53;;;28.00;97.60;;;;;;5074876;28;20497;-78
2023/06/25 10:24:00;;;;;;;6.17;5.57;;;28.10;97.60;;;;;;5074369;28;20942;-77
2023/06/25 10:26:28;;;;;;;7.93;6.17;;;28.10;96.80;;;;;;5074918;28;20489;-79
2023/06/25 10:29:00;;;;;;;6.27;5.77;;;28.10;96.40;;;;;;5074809;28;20463;-79
2023/06/25 10:31:27;;;;;;;6.67;6.17;;;28.10;96.50;;;;;;5074908;28;20488;-78
2023/06/25 10:34:03;;;;;;;6.03;5.50;;;28.10;96.30;;;;;;5066567;28;20485;-79
2023/06/25 10:36:30;;;;;;;5.93;5.53;;;28.10;96.40;;;;;;5075734;28;20473;-80
2023/06/25 10:39:00;;;;;;;7.00;6.40;;;28.00;96.40;;;;;;5075269;28;20481;-78
2023/06/25 10:41:29;;;;;;;6.03;5.43;;;28.00;96.80;;;;;;5075081;28;20496;-78
2023/06/25 10:43:58;;;;;;;6.50;6.00;;;28.00;96.90;;;;;;5074505;28;20477;-79
2023/06/25 10:46:29;;;;;;;7.40;6.67;;;28.10;96.70;;;;;;5074022;28;20505;-78
2023/06/25 10:48:59;;;;;;;6.17;5.67;;;28.10;96.60;;;;;;5073917;28;20522;-79
2023/06/25 10:51:27;;;;;;;7.33;6.73;;;28.10;96.60;;;;;;5073111;28;20853;-79
2023/06/25 10:53:55;;;;;;;7.47;6.87;;;28.10;96.80;;;;;;5074516;28;20542;-80
2023/06/25 10:56:23;;;;;;;6.60;6.10;;;28.10;96.60;;;;;;5074344;28;20477;-78
2023/06/25 10:58:56;;;;;;;6.40;5.90;;;28.10;96.70;;;;;;5074101;28;20948;-79
2023/06/25 11:01:23;;;;;;;7.33;6.73;;;28.20;96.70;;;;;;5073706;28;20991;-79
2023/06/25 11:03:50;;;;;;;7.50;6.90;;;28.20;96.80;;;;;;5073230;28;21027;-78
2023/06/25 11:06:18;;;;;;;7.50;6.80;;;28.20;96.90;;;;;;5074417;28;20494;-80
2023/06/25 11:08:47;;;;;;;6.43;5.93;;;28.20;97.10;;;;;;5074227;28;20489;-80
2023/06/25 11:11:14;;;;;;;7.97;6.07;;;28.30;97.00;;;;;;5074263;28;20473;-80
2023/06/25 11:13:41;;;;;;;7.90;7.30;;;28.40;96.90;;;;;;5073237;28;20506;-80
2023/06/25 11:16:10;;;;;;;6.47;5.90;;;28.50;96.70;;;;;;5094085;28;20461;-80
2023/06/25 11:18:37;;;;;;;7.10;6.50;;;28.50;96.70;;;;;;5094211;28;20474;-79
2023/06/25 11:21:06;;;;;;;6.77;6.27;;;28.50;96.70;;;;;;5093901;28;23664;-79
2023/06/25 11:23:33;;;;;;;7.00;6.40;;;28.50;96.70;;;;;;5094069;28;20882;-78
2023/06/25 11:26:06;;;;;;;7.33;6.10;;;28.50;96.70;;;;;;5083057;28;20559;-78
2023/06/25 11:28:37;;;;;;;7.20;6.50;;;28.60;96.60;;;;;;5093238;28;20484;-80
2023/06/25 11:31:03;;;;;;;6.60;5.90;;;28.50;96.60;;;;;;5092897;28;20465;-78
2023/06/25 11:33:32;;;;;;;5.87;5.40;;;28.50;96.50;;;;;;5093521;28;20477;-79
2023/06/25 11:36:12;;;;;;;16.50;15.10;;;28.50;95.70;;;;;;5093765;28;20800;-80
2023/06/25 11:38:44;;;;;;;15.90;14.53;;;28.50;95.80;;;;;;5093163;28;20468;-80
2023/06/25 11:41:14;;;;;;;8.80;8.10;;;28.50;96.10;;;;;;5092442;28;20544;-80
2023/06/25 11:43:41;;;;;;;8.67;7.93;;;28.50;95.90;;;;;;5093946;28;20962;-78
2023/06/25 11:46:13;;;;;;;7.73;7.13;;;28.40;96.00;;;;;;5093293;28;20469;-79
2023/06/25 11:48:48;;;;;;;7.40;6.60;;;28.40;95.90;;;;;;5093906;28;20472;-79
2023/06/25 11:51:15;;;;;;;6.70;5.93;;;28.40;95.90;;;;;;5093583;28;20560;-78
2023/06/25 11:53:42;;;;;;;6.30;5.80;;;28.50;95.80;;;;;;5093834;28;20461;-79
2023/06/25 11:56:11;;;;;;;11.83;10.90;;;28.60;95.70;;;;;;5092735;28;20469;-81
2023/06/25 11:58:38;;;;;;;7.53;6.90;;;28.70;96.00;;;;;;5093692;28;20468;-80
2023/06/25 12:01:05;;;;;;;7.33;6.73;;;28.80;95.80;;;;;;5093445;28;20529;-80
2023/06/25 12:03:33;;;;;;;6.33;5.77;;;28.90;95.60;;;;;;5093327;28;20466;-78
2023/06/25 12:06:02;;;;;;;7.43;6.80;;;28.90;95.50;;;;;;5093083;28;20470;-79
2023/06/25 12:08:29;;;;;;;7.13;6.63;;;28.90;95.30;;;;;;5093725;28;20473;-78
2023/06/25 12:10:55;;;;;;;9.30;8.60;;;28.90;95.30;;;;;;5093091;28;21035;-79
2023/06/25 12:13:24;;;;;;;8.27;7.57;;;28.90;95.50;;;;;;5093707;28;21033;-79
2023/06/25 12:15:51;;;;;;;6.90;6.40;;;28.90;95.30;;;;;;5093130;28;20480;-79
2023/06/25 12:18:18;;;;;;;7.53;6.93;;;28.90;95.30;;;;;;5092979;28;20485;-80
2023/06/25 12:20:49;;;;;;;6.77;6.27;;;28.80;95.70;;;;;;5093402;28;20462;-79
2023/06/25 12:23:18;;;;;;;7.10;6.60;;;28.70;95.50;;;;;;5092568;28;20465;-78
2023/06/25 12:25:45;;;;;;;6.93;6.33;;;28.60;95.40;;;;;;5093583;28;21036;-81
2023/06/25 12:28:12;;;;;;;7.60;7.03;;;28.60;95.70;;;;;;5093151;28;20473;-79
2023/06/25 12:30:39;;;;;;;6.77;6.27;;;28.50;95.80;;;;;;5093428;28;20947;-79
2023/06/25 12:33:06;;;;;;;7.07;6.57;;;28.40;95.80;;;;;;5092874;28;20530;-79
2023/06/25 12:35:33;;;;;;;8.23;7.53;;;28.30;95.80;;;;;;5092838;28;20530;-78
2023/06/25 12:38:00;;;;;;;7.43;6.93;;;28.20;96.00;;;;;;5092905;28;20484;-80
2023/06/25 12:40:29;;;;;;;8.53;7.93;;;28.10;96.30;;;;;;5093284;28;20479;-78
2023/06/25 12:42:56;;;;;;;8.37;7.57;;;28.10;96.60;;;;;;5093039;28;20480;-81
2023/06/25 12:45:24;;;;;;;8.37;7.67;;;28.00;96.80;;;;;;5092890;28;20788;-79
2023/06/25 12:47:51;;;;;;;7.77;7.07;;;27.90;97.10;;;;;;5093156;28;20497;-78
2023/06/25 12:50:18;;;;;;;7.53;6.77;;;27.90;97.00;;;;;;5092892;28;20525;-78
2023/06/25 12:52:46;;;;;;;5.77;5.27;;;27.90;97.10;;;;;;5093008;28;20467;-78
2023/06/25 12:55:16;;;;;;;6.70;6.07;;;27.90;97.00;;;;;;5092556;28;20472;-80